Time;durP1;ratioP1;P1;durP2;ratioP2;P2;SDS_P1;SDS_P2;PMS_P1;PMS_P2;Temp;Humidity;BMP_temperature;BMP_pressure;BME280_temperature;BME280_humidity;BME280_pressure;Samples;Min_cycle;Max_cycle;Signal;HPM_P1;HPM_P2
2023/05/31 00:00:14;;;;;;;12.07;3.08;;;10.90;99.90;;;;;;5042811;28;20049;-66
2023/05/31 00:02:40;;;;;;;10.85;3.50;;;10.90;99.90;;;;;;5044702;28;20130;-65
2023/05/31 00:05:06;;;;;;;7.80;3.22;;;10.90;99.90;;;;;;5029440;28;20068;-66
2023/05/31 00:07:32;;;;;;;5.22;3.40;;;10.90;99.90;;;;;;5048871;28;20041;-65
2023/05/31 00:09:58;;;;;;;13.88;3.40;;;10.90;99.90;;;;;;5029839;28;20048;-65
2023/05/31 00:12:23;;;;;;;10.32;3.28;;;10.80;99.90;;;;;;5050216;28;20494;-66
2023/05/31 00:14:50;;;;;;;12.68;3.45;;;10.90;99.90;;;;;;5029227;28;20063;-66
2023/05/31 00:17:16;;;;;;;8.70;3.47;;;10.80;99.90;;;;;;5049549;28;20055;-65
2023/05/31 00:19:42;;;;;;;9.60;3.20;;;10.80;99.90;;;;;;5049013;28;20045;-66
2023/05/31 00:22:10;;;;;;;15.68;3.17;;;10.90;99.90;;;;;;5048208;28;20040;-65
2023/05/31 00:24:36;;;;;;;12.57;3.30;;;10.80;99.90;;;;;;5048834;28;20098;-65
2023/05/31 00:27:02;;;;;;;5.95;3.33;;;10.80;99.90;;;;;;5013286;28;20040;-66
2023/05/31 00:29:29;;;;;;;7.60;3.25;;;10.80;99.90;;;;;;5049659;28;20055;-66
2023/05/31 00:31:55;;;;;;;8.00;3.20;;;10.70;99.90;;;;;;5029165;28;20049;-65
2023/05/31 00:34:21;;;;;;;7.75;3.00;;;10.80;99.90;;;;;;5049967;28;20417;-65
2023/05/31 00:36:46;;;;;;;6.60;3.42;;;10.80;99.90;;;;;;5047183;28;20052;-65
2023/05/31 00:39:12;;;;;;;14.15;3.70;;;10.70;99.90;;;;;;5030631;28;20056;-65
2023/05/31 00:41:38;;;;;;;10.80;4.00;;;10.70;99.90;;;;;;5049444;28;20045;-66
2023/05/31 00:44:04;;;;;;;8.07;3.67;;;10.70;99.90;;;;;;5046976;28;20575;-65
2023/05/31 00:46:36;;;;;;;11.35;3.78;;;10.70;99.90;;;;;;5038005;28;20037;-65
2023/05/31 00:49:02;;;;;;;7.22;3.35;;;10.70;99.90;;;;;;5012136;28;20184;-66
2023/05/31 00:51:31;;;;;;;6.38;3.25;;;10.70;99.90;;;;;;5042060;28;20519;-65
2023/05/31 00:53:59;;;;;;;7.25;3.17;;;10.70;99.90;;;;;;5015993;28;20052;-65
2023/05/31 00:56:25;;;;;;;10.30;3.38;;;10.60;99.90;;;;;;5026433;28;20061;-65
2023/05/31 00:58:52;;;;;;;8.98;3.25;;;10.60;99.90;;;;;;5046117;28;20079;-65
2023/05/31 01:01:21;;;;;;;9.20;3.35;;;10.70;99.90;;;;;;5046402;28;20048;-65
2023/05/31 01:03:47;;;;;;;9.35;2.97;;;10.60;99.90;;;;;;5048752;28;20525;-65
2023/05/31 01:06:12;;;;;;;12.60;3.65;;;10.70;99.90;;;;;;5046370;28;20360;-65
2023/05/31 01:08:39;;;;;;;9.45;3.38;;;10.60;99.90;;;;;;5008855;28;20060;-65
2023/05/31 01:11:31;;;;;;;8.02;3.70;;;10.60;99.90;;;;;;5047060;28;20041;-65
2023/05/31 01:14:19;;;;;;;7.22;3.42;;;10.60;99.90;;;;;;5028984;28;20049;-65
2023/05/31 01:17:13;;;;;;;9.63;3.30;;;10.50;99.90;;;;;;5047337;28;20083;-64
2023/05/31 01:19:48;;;;;;;10.25;3.58;;;10.50;99.90;;;;;;5046966;28;20057;-64
2023/05/31 01:22:41;;;;;;;10.18;4.07;;;10.50;99.90;;;;;;5047976;28;20858;-65
2023/05/31 01:25:07;;;;;;;8.95;3.75;;;10.40;99.90;;;;;;5037279;28;20526;-65
2023/05/31 01:27:34;;;;;;;13.50;4.05;;;10.40;99.90;;;;;;5043735;28;20041;-65
2023/05/31 01:30:02;;;;;;;10.70;4.05;;;10.30;99.90;;;;;;5030611;28;20047;-65
2023/05/31 01:32:28;;;;;;;7.78;3.42;;;10.30;99.90;;;;;;5028926;28;20479;-65
2023/05/31 01:34:54;;;;;;;10.00;4.30;;;10.30;99.90;;;;;;5030007;28;20395;-65
2023/05/31 01:37:20;;;;;;;15.55;4.28;;;10.30;99.90;;;;;;5029588;28;20044;-65
2023/05/31 01:39:48;;;;;;;9.45;4.15;;;10.30;99.90;;;;;;5027780;28;20469;-65
2023/05/31 01:42:16;;;;;;;11.02;4.32;;;10.30;99.90;;;;;;5048645;28;20104;-65
2023/05/31 01:44:42;;;;;;;9.50;4.35;;;10.40;99.90;;;;;;5028385;28;20479;-65
2023/05/31 01:47:09;;;;;;;14.38;5.10;;;10.30;99.90;;;;;;5048243;28;20115;-65
2023/05/31 01:49:37;;;;;;;11.25;4.70;;;10.30;99.90;;;;;;5033604;28;20607;-65
2023/05/31 01:52:12;;;;;;;12.10;4.32;;;10.40;99.90;;;;;;5017283;28;20045;-65
2023/05/31 01:54:38;;;;;;;11.88;5.35;;;10.40;99.90;;;;;;5033815;28;20045;-65
2023/05/31 01:57:05;;;;;;;11.15;4.80;;;10.40;99.90;;;;;;5041290;28;20046;-65
2023/05/31 01:59:36;;;;;;;17.23;4.35;;;10.40;99.90;;;;;;5031772;28;20049;-65
2023/05/31 02:02:04;;;;;;;12.45;4.30;;;10.40;99.90;;;;;;5038106;28;20122;-65
2023/05/31 02:04:30;;;;;;;14.52;4.38;;;10.50;99.90;;;;;;5030473;28;20057;-65
2023/05/31 02:06:57;;;;;;;13.82;5.93;;;10.40;99.90;;;;;;5045349;28;20047;-65
2023/05/31 02:09:23;;;;;;;15.20;4.25;;;10.40;99.90;;;;;;5026805;28;20057;-65
2023/05/31 02:11:49;;;;;;;13.23;4.22;;;10.40;99.90;;;;;;5037896;28;20075;-65
2023/05/31 02:14:15;;;;;;;7.50;4.32;;;10.40;99.90;;;;;;5045768;28;20060;-65
2023/05/31 02:16:41;;;;;;;17.48;4.68;;;10.50;99.90;;;;;;5029614;28;20052;-65
2023/05/31 02:19:06;;;;;;;11.23;4.15;;;10.50;99.90;;;;;;5027469;28;20047;-65
2023/05/31 02:21:35;;;;;;;16.77;4.13;;;10.60;99.90;;;;;;5039000;28;20140;-65
2023/05/31 02:24:01;;;;;;;9.77;4.03;;;10.60;99.90;;;;;;5027096;28;20095;-65
2023/05/31 02:26:27;;;;;;;12.32;4.13;;;10.50;99.90;;;;;;5047587;28;20045;-65
2023/05/31 02:28:52;;;;;;;13.18;4.35;;;10.50;99.90;;;;;;5045774;28;20048;-64
2023/05/31 02:31:18;;;;;;;14.45;4.60;;;10.50;99.90;;;;;;5042888;28;20403;-65
2023/05/31 02:33:44;;;;;;;12.48;4.18;;;10.50;99.90;;;;;;5020081;28;20041;-65
2023/05/31 02:36:11;;;;;;;12.55;4.03;;;10.40;99.90;;;;;;5023074;28;20234;-65
2023/05/31 02:38:37;;;;;;;11.05;4.30;;;10.40;99.90;;;;;;5029798;28;20055;-65
2023/05/31 02:41:02;;;;;;;17.70;4.60;;;10.50;99.90;;;;;;5042292;28;20049;-66
2023/05/31 02:43:30;;;;;;;12.30;3.95;;;10.50;99.90;;;;;;5012493;28;20419;-65
2023/05/31 02:45:56;;;;;;;14.40;3.97;;;10.50;99.90;;;;;;5027089;28;20052;-65
2023/05/31 02:48:22;;;;;;;17.25;4.55;;;10.40;99.90;;;;;;5046967;28;20514;-65
2023/05/31 02:50:47;;;;;;;12.30;3.80;;;10.50;99.90;;;;;;5028400;28;20045;-65
2023/05/31 02:53:13;;;;;;;10.63;4.70;;;10.40;99.90;;;;;;5030849;28;20085;-65
2023/05/31 02:55:40;;;;;;;13.38;4.47;;;10.40;99.90;;;;;;5047114;28;20048;-65
2023/05/31 02:58:06;;;;;;;12.38;4.18;;;10.40;99.90;;;;;;5044459;28;20049;-65
2023/05/31 03:00:33;;;;;;;13.93;4.38;;;10.40;99.90;;;;;;5033261;28;20080;-65
2023/05/31 03:02:59;;;;;;;11.52;3.22;;;10.40;99.90;;;;;;5034627;28;20049;-65
2023/05/31 03:05:26;;;;;;;10.40;3.75;;;10.50;99.90;;;;;;5044281;28;20498;-65
2023/05/31 03:07:52;;;;;;;11.20;3.60;;;10.50;99.90;;;;;;5045408;28;20230;-65
2023/05/31 03:10:18;;;;;;;15.20;3.53;;;10.50;99.90;;;;;;5045985;28;20049;-65
2023/05/31 03:12:43;;;;;;;11.75;3.30;;;10.50;99.90;;;;;;5027640;28;20419;-65
2023/05/31 03:15:10;;;;;;;17.58;3.80;;;10.40;99.90;;;;;;5044041;28;20041;-65
2023/05/31 03:17:37;;;;;;;12.50;3.75;;;10.50;99.90;;;;;;5046567;28;20080;-65
2023/05/31 03:20:09;;;;;;;16.58;3.92;;;10.40;99.90;;;;;;5026620;28;20106;-65
2023/05/31 03:22:35;;;;;;;16.98;4.50;;;10.50;99.90;;;;;;5027013;28;20506;-65
2023/05/31 03:25:03;;;;;;;7.70;3.28;;;10.40;99.90;;;;;;5036377;28;20053;-65
2023/05/31 03:27:30;;;;;;;11.98;3.30;;;10.40;99.90;;;;;;5022623;28;20052;-65
2023/05/31 03:29:56;;;;;;;14.30;3.45;;;10.50;99.90;;;;;;5027965;28;20047;-64
2023/05/31 03:32:22;;;;;;;14.95;3.90;;;10.50;99.90;;;;;;5044619;28;20056;-64
2023/05/31 03:34:47;;;;;;;15.02;3.63;;;10.60;99.90;;;;;;5037768;28;20041;-65
2023/05/31 03:37:14;;;;;;;10.25;3.70;;;10.60;99.90;;;;;;5044240;28;20076;-64
2023/05/31 03:39:40;;;;;;;11.32;3.60;;;10.60;99.90;;;;;;5046642;28;20045;-64
2023/05/31 03:42:06;;;;;;;12.68;3.70;;;10.60;99.90;;;;;;5044211;28;20162;-65
2023/05/31 03:44:33;;;;;;;12.45;3.55;;;10.60;99.90;;;;;;5028326;28;20128;-64
2023/05/31 03:46:59;;;;;;;13.07;3.55;;;10.60;99.90;;;;;;5023915;28;20132;-65
2023/05/31 03:49:25;;;;;;;15.50;3.72;;;10.70;99.90;;;;;;5038006;28;20135;-65
2023/05/31 03:51:51;;;;;;;8.93;3.33;;;10.70;99.90;;;;;;5040667;28;20045;-65
2023/05/31 03:54:17;;;;;;;16.17;3.90;;;10.70;99.90;;;;;;5031994;28;20048;-65
2023/05/31 03:56:43;;;;;;;11.32;3.72;;;10.70;99.90;;;;;;5046324;28;20053;-65
2023/05/31 03:59:09;;;;;;;10.60;4.15;;;10.80;99.90;;;;;;5026102;28;20051;-65
2023/05/31 04:01:34;;;;;;;15.50;4.03;;;10.80;99.90;;;;;;5027996;28;20503;-65
2023/05/31 04:04:00;;;;;;;12.00;4.20;;;10.80;99.90;;;;;;5042753;28;20049;-65
2023/05/31 04:06:26;;;;;;;11.88;3.95;;;10.80;99.90;;;;;;5027744;28;20041;-65
2023/05/31 04:08:52;;;;;;;13.95;4.00;;;10.90;99.90;;;;;;5045123;28;20091;-65
2023/05/31 04:11:18;;;;;;;14.38;4.03;;;10.90;99.90;;;;;;5044738;28;20076;-65
2023/05/31 04:13:44;;;;;;;15.77;4.05;;;11.00;99.90;;;;;;5028480;28;20045;-65
2023/05/31 04:16:10;;;;;;;12.25;3.50;;;11.00;99.90;;;;;;5021494;28;20037;-64
2023/05/31 04:18:35;;;;;;;14.43;4.47;;;11.00;99.90;;;;;;5027981;28;20055;-65
2023/05/31 04:21:01;;;;;;;10.95;4.63;;;11.10;99.90;;;;;;5039909;28;20050;-65
2023/05/31 04:23:27;;;;;;;13.13;4.32;;;11.10;99.90;;;;;;5016709;28;20045;-65
2023/05/31 04:25:52;;;;;;;11.90;3.63;;;11.20;99.90;;;;;;5043261;28;20045;-64
2023/05/31 04:28:20;;;;;;;10.50;3.72;;;11.20;99.90;;;;;;5026285;28;20518;-65
2023/05/31 04:30:46;;;;;;;15.50;4.65;;;11.30;99.90;;;;;;5024160;28;20079;-64
2023/05/31 04:33:11;;;;;;;15.57;4.13;;;11.30;99.90;;;;;;5043392;28;20479;-64
2023/05/31 04:35:38;;;;;;;14.43;4.50;;;11.30;99.90;;;;;;5046163;28;20090;-64
2023/05/31 04:38:04;;;;;;;14.43;5.20;;;11.30;99.90;;;;;;5013197;28;20052;-64
2023/05/31 04:40:31;;;;;;;11.70;4.35;;;11.40;99.90;;;;;;5031074;28;20211;-64
2023/05/31 04:42:58;;;;;;;16.40;4.97;;;11.40;99.90;;;;;;5047462;28;20087;-64
2023/05/31 04:45:24;;;;;;;12.27;4.13;;;11.40;99.90;;;;;;5031468;28;20113;-64
2023/05/31 04:47:50;;;;;;;11.50;4.70;;;11.50;99.90;;;;;;5041339;28;20124;-64
2023/05/31 04:50:16;;;;;;;13.93;4.30;;;11.50;99.90;;;;;;5035770;28;20045;-64
2023/05/31 04:52:43;;;;;;;13.88;4.25;;;11.50;99.90;;;;;;5031774;28;20125;-64
2023/05/31 04:55:09;;;;;;;15.20;4.47;;;11.70;99.90;;;;;;5047163;28;20063;-64
2023/05/31 04:57:35;;;;;;;15.02;4.70;;;11.70;99.90;;;;;;5034047;28;20041;-64
2023/05/31 05:00:01;;;;;;;15.50;4.57;;;11.80;99.90;;;;;;5046160;28;20514;-64
2023/05/31 05:02:26;;;;;;;15.13;3.83;;;11.80;99.90;;;;;;5048802;28;20051;-64
2023/05/31 05:04:52;;;;;;;14.98;4.80;;;11.90;99.90;;;;;;5030095;28;20511;-65
2023/05/31 05:07:20;;;;;;;12.70;4.15;;;12.00;99.90;;;;;;5048137;28;20128;-64
2023/05/31 05:09:46;;;;;;;9.07;3.38;;;12.00;99.90;;;;;;5042654;28;20439;-64
2023/05/31 05:12:12;;;;;;;24.25;4.65;;;12.10;99.90;;;;;;5023251;28;20060;-65
2023/05/31 05:14:38;;;;;;;9.82;3.47;;;12.20;99.90;;;;;;5048626;28;20048;-64
2023/05/31 05:17:04;;;;;;;14.18;3.60;;;12.20;99.90;;;;;;5047392;28;20072;-65
2023/05/31 05:19:30;;;;;;;11.25;4.03;;;12.20;99.90;;;;;;5029061;28;20437;-64
2023/05/31 05:21:55;;;;;;;11.43;3.38;;;12.30;99.90;;;;;;5029526;28;20413;-64
2023/05/31 05:24:21;;;;;;;9.73;3.30;;;12.40;99.90;;;;;;5030362;28;20435;-65
2023/05/31 05:26:47;;;;;;;15.32;3.45;;;12.50;99.90;;;;;;5048336;28;20071;-64
2023/05/31 05:29:13;;;;;;;13.70;3.55;;;12.50;99.90;;;;;;5046418;28;20045;-65
2023/05/31 05:31:38;;;;;;;11.35;3.38;;;12.60;99.90;;;;;;5022357;28;20099;-65
2023/05/31 05:34:04;;;;;;;10.02;3.22;;;12.70;99.90;;;;;;5046390;28;20048;-65
2023/05/31 05:36:31;;;;;;;8.82;2.80;;;12.70;99.90;;;;;;5048394;28;20653;-65
2023/05/31 05:39:03;;;;;;;13.20;3.13;;;12.80;99.90;;;;;;5046767;28;20051;-65
2023/05/31 05:41:30;;;;;;;16.00;3.80;;;13.00;99.90;;;;;;5035829;28;20052;-65
2023/05/31 05:43:56;;;;;;;8.75;2.95;;;13.00;99.90;;;;;;5013331;28;20048;-64
2023/05/31 05:46:21;;;;;;;14.73;2.78;;;13.00;99.90;;;;;;5046971;28;20399;-65
2023/05/31 05:48:47;;;;;;;14.13;3.35;;;13.00;99.90;;;;;;5047024;28;20077;-65
2023/05/31 05:51:13;;;;;;;14.45;2.67;;;13.00;99.90;;;;;;5021183;28;20052;-65
2023/05/31 05:53:39;;;;;;;6.20;2.65;;;13.00;99.90;;;;;;5029174;28;20096;-65
2023/05/31 05:56:05;;;;;;;8.15;2.83;;;13.00;99.90;;;;;;5028184;28;20127;-64
2023/05/31 05:58:31;;;;;;;6.63;1.92;;;13.00;99.90;;;;;;5012777;28;20064;-65
2023/05/31 06:00:56;;;;;;;7.72;2.53;;;13.00;99.90;;;;;;5025738;28;20041;-65
2023/05/31 06:03:23;;;;;;;5.72;2.20;;;13.00;99.90;;;;;;5022585;28;20498;-65
2023/05/31 06:05:49;;;;;;;6.13;2.28;;;13.10;99.90;;;;;;5027526;28;20585;-65
2023/05/31 06:08:15;;;;;;;7.30;2.50;;;13.10;99.90;;;;;;4992542;28;20073;-65
2023/05/31 06:10:41;;;;;;;6.85;2.60;;;13.10;99.90;;;;;;5027453;28;20447;-65
2023/05/31 06:13:08;;;;;;;11.10;2.67;;;13.20;99.90;;;;;;5007239;28;20045;-65
2023/05/31 06:15:33;;;;;;;8.50;1.95;;;13.20;99.90;;;;;;5009786;28;20080;-65
2023/05/31 06:17:59;;;;;;;8.55;2.67;;;13.30;99.90;;;;;;5024641;28;20104;-65
2023/05/31 06:20:26;;;;;;;5.53;2.03;;;13.30;99.90;;;;;;5001793;28;20128;-65
2023/05/31 06:22:52;;;;;;;5.82;2.00;;;13.30;99.90;;;;;;5012895;28;20148;-65
2023/05/31 06:25:19;;;;;;;5.13;2.00;;;13.40;99.90;;;;;;5027035;28;20045;-65
2023/05/31 06:27:45;;;;;;;4.75;2.17;;;13.50;99.90;;;;;;5027339;28;20424;-65
2023/05/31 06:30:12;;;;;;;7.70;1.95;;;13.60;99.90;;;;;;4995944;28;20132;-65
2023/05/31 06:32:38;;;;;;;6.82;1.80;;;13.70;99.90;;;;;;5023055;28;20575;-65
2023/05/31 06:35:05;;;;;;;6.85;2.08;;;13.80;99.90;;;;;;5004858;28;20041;-66
2023/05/31 06:37:31;;;;;;;6.82;1.67;;;13.80;99.90;;;;;;5027418;28;20576;-65
2023/05/31 06:39:57;;;;;;;4.72;1.50;;;13.80;99.90;;;;;;5012282;28;20128;-65
2023/05/31 06:42:23;;;;;;;6.97;1.80;;;13.90;99.90;;;;;;5016830;28;20095;-65
2023/05/31 06:44:48;;;;;;;3.58;1.50;;;14.00;99.90;;;;;;5009113;28;20418;-65
2023/05/31 06:47:14;;;;;;;7.20;2.03;;;14.00;99.90;;;;;;5007009;28;20133;-65
2023/05/31 06:49:40;;;;;;;5.22;1.67;;;14.10;99.90;;;;;;5011670;28;20052;-65
2023/05/31 06:52:06;;;;;;;5.97;1.80;;;14.20;99.90;;;;;;5012825;28;20045;-65
2023/05/31 06:54:36;;;;;;;5.82;1.98;;;14.30;99.90;;;;;;5017957;28;20579;-65
2023/05/31 06:57:05;;;;;;;4.93;1.67;;;14.30;99.90;;;;;;4987468;28;20058;-65
2023/05/31 06:59:31;;;;;;;5.57;1.63;;;14.40;99.90;;;;;;5020035;28;20119;-66
2023/05/31 07:01:57;;;;;;;6.38;2.80;;;14.40;99.90;;;;;;5042637;28;20296;-65
2023/05/31 07:04:23;;;;;;;3.00;1.25;;;14.40;99.90;;;;;;5045090;28;20053;-65
2023/05/31 07:06:49;;;;;;;5.40;1.33;;;14.60;99.90;;;;;;5032141;28;20048;-65
2023/05/31 07:09:15;;;;;;;3.72;1.48;;;14.70;99.90;;;;;;5029234;28;20090;-65
2023/05/31 07:11:41;;;;;;;5.65;1.50;;;14.80;99.90;;;;;;5047790;28;20049;-66
2023/05/31 07:14:07;;;;;;;6.35;2.20;;;14.80;99.90;;;;;;5044608;28;20368;-66
2023/05/31 07:16:33;;;;;;;5.90;1.48;;;14.90;99.90;;;;;;5043135;28;20538;-65
2023/05/31 07:18:59;;;;;;;6.53;1.98;;;14.90;99.90;;;;;;5019593;28;20132;-65
2023/05/31 07:21:25;;;;;;;9.15;1.50;;;15.10;99.90;;;;;;5039686;28;20049;-66
2023/05/31 07:23:51;;;;;;;9.52;1.65;;;15.10;99.90;;;;;;5031866;28;20341;-65
2023/05/31 07:26:17;;;;;;;5.97;1.65;;;15.20;99.90;;;;;;5017323;28;20034;-66
2023/05/31 07:28:46;;;;;;;7.72;1.30;;;15.50;99.90;;;;;;5033814;28;20402;-66
2023/05/31 07:31:15;;;;;;;11.30;1.48;;;15.60;99.90;;;;;;5032505;28;20428;-66
2023/05/31 07:33:41;;;;;;;13.05;2.00;;;15.80;99.90;;;;;;5042582;28;20410;-66
2023/05/31 07:36:07;;;;;;;4.63;1.30;;;16.00;99.90;;;;;;5034845;28;20045;-66
2023/05/31 07:38:33;;;;;;;4.47;1.38;;;16.20;99.90;;;;;;5016976;28;20049;-65
2023/05/31 07:40:59;;;;;;;8.93;2.00;;;16.20;99.90;;;;;;5037946;28;20049;-65
2023/05/31 07:43:25;;;;;;;9.02;1.48;;;16.40;99.90;;;;;;5031658;28;20052;-65
2023/05/31 07:45:54;;;;;;;7.78;1.40;;;16.50;99.90;;;;;;5033705;28;20122;-66
2023/05/31 07:48:20;;;;;;;7.70;1.60;;;16.60;99.90;;;;;;5012221;28;20055;-66
2023/05/31 07:50:46;;;;;;;6.05;1.55;;;16.70;99.90;;;;;;5032187;28;20041;-65
2023/05/31 07:53:12;;;;;;;8.68;1.90;;;16.90;99.90;;;;;;5017416;28;20049;-66
2023/05/31 07:55:39;;;;;;;9.10;1.77;;;17.10;99.90;;;;;;5024504;28;20531;-65
2023/05/31 07:58:05;;;;;;;11.50;2.10;;;17.10;99.90;;;;;;5038144;28;20195;-65
2023/05/31 08:00:31;;;;;;;10.48;2.15;;;17.20;99.90;;;;;;5037264;28;20057;-65
2023/05/31 08:02:56;;;;;;;15.85;2.38;;;17.40;99.90;;;;;;5035128;28;20037;-65
2023/05/31 08:05:22;;;;;;;18.65;2.95;;;17.50;99.90;;;;;;5031039;28;20451;-65
2023/05/31 08:07:48;;;;;;;9.10;2.00;;;17.40;99.90;;;;;;5018340;28;20064;-65
2023/05/31 08:10:15;;;;;;;13.82;2.72;;;17.30;99.90;;;;;;5024931;28;20049;-65
2023/05/31 08:12:41;;;;;;;19.98;3.08;;;17.50;99.90;;;;;;5025070;28;20115;-66
2023/05/31 08:15:07;;;;;;;11.98;2.72;;;17.60;99.90;;;;;;5039787;28;20510;-65
2023/05/31 08:17:33;;;;;;;10.13;2.83;;;17.70;99.90;;;;;;5041147;28;20049;-66
2023/05/31 08:19:59;;;;;;;16.70;3.05;;;17.90;99.90;;;;;;5031712;28;20194;-65
2023/05/31 08:22:25;;;;;;;9.68;2.67;;;17.90;99.90;;;;;;5042999;28;20121;-65
2023/05/31 08:24:50;;;;;;;7.72;2.42;;;17.90;98.00;;;;;;5021321;28;20128;-65
2023/05/31 08:27:17;;;;;;;16.50;3.38;;;17.80;99.10;;;;;;5036335;28;20045;-65
2023/05/31 08:29:43;;;;;;;13.45;2.55;;;17.80;99.90;;;;;;5025875;28;20163;-65
2023/05/31 08:32:09;;;;;;;10.65;2.53;;;17.70;99.30;;;;;;5019005;28;20049;-65
2023/05/31 08:34:35;;;;;;;14.20;2.92;;;17.80;98.10;;;;;;5014811;28;20044;-65
2023/05/31 08:37:01;;;;;;;16.92;2.90;;;17.70;97.90;;;;;;5015751;28;20046;-66
2023/05/31 08:39:27;;;;;;;17.05;3.17;;;17.40;99.90;;;;;;5017774;28;20041;-65
2023/05/31 08:42:10;;;;;;;17.27;3.42;;;17.40;99.90;;;;;;5035922;28;20075;-65
2023/05/31 08:44:37;;;;;;;11.68;2.60;;;17.40;99.70;;;;;;5033695;28;20414;-65
2023/05/31 08:47:18;;;;;;;16.08;3.35;;;17.20;99.30;;;;;;5029073;28;20041;-66
2023/05/31 08:49:45;;;;;;;8.88;2.95;;;17.10;98.50;;;;;;5006275;28;20044;-66
2023/05/31 08:52:12;;;;;;;11.27;2.90;;;16.90;99.90;;;;;;5041829;28;20053;-66
2023/05/31 08:54:39;;;;;;;7.15;2.42;;;16.80;99.90;;;;;;5047770;28;20060;-65
2023/05/31 08:57:06;;;;;;;8.07;2.95;;;17.00;99.90;;;;;;5035448;28;20067;-66
2023/05/31 08:59:34;;;;;;;11.05;3.28;;;17.00;99.90;;;;;;5041817;28;20059;-65
2023/05/31 09:02:00;;;;;;;8.57;2.90;;;17.00;99.90;;;;;;5016296;28;20121;-65
2023/05/31 09:04:26;;;;;;;10.38;2.95;;;17.00;99.00;;;;;;5012537;28;20220;-66
2023/05/31 09:06:52;;;;;;;8.98;2.50;;;16.90;99.20;;;;;;5017598;28;20045;-65
2023/05/31 09:09:19;;;;;;;17.17;3.60;;;16.80;99.90;;;;;;5039455;28;20044;-65
2023/05/31 09:11:45;;;;;;;8.73;2.33;;;16.70;98.00;;;;;;5037968;28;20088;-65
2023/05/31 09:14:11;;;;;;;7.07;2.47;;;16.60;98.00;;;;;;5039449;28;20048;-66
2023/05/31 09:16:37;;;;;;;6.38;2.30;;;16.50;99.90;;;;;;5021347;28;20407;-66
2023/05/31 09:19:05;;;;;;;11.02;3.45;;;16.40;99.90;;;;;;5021114;28;20052;-65
2023/05/31 09:21:43;;;;;;;5.57;2.72;;;16.30;99.90;;;;;;5025297;28;20053;-65
2023/05/31 09:24:10;;;;;;;9.80;2.90;;;16.20;99.90;;;;;;5044396;28;20127;-65
2023/05/31 09:26:48;;;;;;;12.18;2.50;;;16.30;99.90;;;;;;5045128;28;20510;-66
2023/05/31 09:29:15;;;;;;;15.60;3.25;;;16.40;99.90;;;;;;5035844;28;20138;-65
2023/05/31 09:31:41;;;;;;;10.68;2.85;;;16.50;99.90;;;;;;5021791;28;20045;-65
2023/05/31 09:34:25;;;;;;;17.08;2.80;;;16.60;99.90;;;;;;5038605;28;20040;-65
2023/05/31 09:36:51;;;;;;;7.78;2.25;;;16.60;99.90;;;;;;5022035;28;20046;-65
2023/05/31 09:39:17;;;;;;;2.65;1.10;;;16.70;99.90;;;;;;5031620;28;20060;-65
2023/05/31 09:41:43;;;;;;;3.67;1.88;;;16.70;99.70;;;;;;5024111;28;20044;-65
2023/05/31 09:44:09;;;;;;;4.65;0.88;;;16.80;99.20;;;;;;5028357;28;20403;-65
2023/05/31 09:46:36;;;;;;;13.82;2.55;;;16.70;99.60;;;;;;5024158;28;20037;-63
2023/05/31 09:49:06;;;;;;;5.43;1.90;;;16.60;97.70;;;;;;5017737;28;20056;-62
2023/05/31 09:51:32;;;;;;;;;;;16.50;99.90;;;;;;5025801;28;20509;-65
2023/05/31 09:54:01;;;;;;;10.27;2.65;;;16.40;99.90;;;;;;5042567;28;19956;-65
2023/05/31 09:56:28;;;;;;;7.35;1.80;;;16.40;99.90;;;;;;5036816;28;20384;-65
2023/05/31 09:58:57;;;;;;;6.38;1.92;;;16.50;99.20;;;;;;5037167;28;20052;-63
2023/05/31 10:01:23;;;;;;;10.23;2.00;;;16.60;99.90;;;;;;5020363;28;20049;-65
2023/05/31 10:03:50;;;;;;;5.60;1.55;;;16.70;99.90;;;;;;5011840;28;20408;-64
2023/05/31 10:06:17;;;;;;;10.10;2.53;;;16.70;99.40;;;;;;5039791;28;20032;-66
2023/05/31 10:08:45;;;;;;;7.85;3.20;;;16.70;98.40;;;;;;5031951;28;20558;-65
2023/05/31 10:11:15;;;;;;;7.57;1.98;;;16.50;98.30;;;;;;5038491;28;20099;-65
2023/05/31 10:13:44;;;;;;;2.65;1.55;;;16.50;99.00;;;;;;5029321;28;20132;-65
2023/05/31 10:16:11;;;;;;;7.47;1.60;;;16.40;99.90;;;;;;5044531;28;20029;-65
2023/05/31 10:18:40;;;;;;;7.95;2.00;;;16.50;99.90;;;;;;5038344;28;20045;-65
2023/05/31 10:21:24;;;;;;;6.40;2.13;;;16.50;99.90;;;;;;5043504;28;20293;-65
2023/05/31 10:24:36;;;;;;;7.30;1.52;;;16.60;99.90;;;;;;5019933;28;20037;-64
2023/05/31 10:27:05;;;;;;;7.90;2.10;;;16.60;99.90;;;;;;5038221;28;20060;-64
2023/05/31 10:29:40;;;;;;;7.35;1.58;;;16.50;99.90;;;;;;5043795;28;20398;-63
2023/05/31 10:32:31;;;;;;;6.78;1.80;;;16.60;99.90;;;;;;5023853;28;20053;-63
2023/05/31 10:34:57;;;;;;;10.77;2.13;;;16.50;99.90;;;;;;5030089;28;20036;-65
2023/05/31 10:37:24;;;;;;;7.72;1.85;;;16.50;99.90;;;;;;5009963;28;20102;-64
2023/05/31 10:40:16;;;;;;;7.18;1.48;;;16.60;99.90;;;;;;5012709;28;20068;-64
2023/05/31 10:42:54;;;;;;;7.68;1.55;;;16.60;99.90;;;;;;4999423;28;20049;-65
2023/05/31 10:45:33;;;;;;;3.88;1.63;;;16.60;99.90;;;;;;5021126;28;20037;-65
2023/05/31 10:48:33;;;;;;;6.43;1.52;;;16.60;99.90;;;;;;5039558;28;20041;-65
2023/05/31 10:51:02;;;;;;;3.92;1.30;;;16.60;99.90;;;;;;5016444;28;20127;-65
2023/05/31 10:53:29;;;;;;;9.20;2.33;;;16.70;99.90;;;;;;5038838;28;20037;-65
2023/05/31 10:56:09;;;;;;;10.25;2.17;;;16.60;99.90;;;;;;5017614;28;20578;-65
2023/05/31 10:58:42;;;;;;;13.38;3.45;;;16.40;99.90;;;;;;5032835;28;20088;-65
2023/05/31 11:01:13;;;;;;;8.05;2.22;;;16.30;99.90;;;;;;5042853;28;20102;-65
2023/05/31 11:03:46;;;;;;;7.57;1.65;;;16.30;99.90;;;;;;5037915;28;20049;-65
2023/05/31 11:06:15;;;;;;;19.48;3.28;;;16.30;99.90;;;;;;5035359;28;20111;-66
2023/05/31 11:09:08;;;;;;;10.03;1.70;;;16.40;99.90;;;;;;5019784;28;20418;-65
2023/05/31 11:11:34;;;;;;;9.40;1.95;;;16.40;99.90;;;;;;5037942;28;20052;-66
2023/05/31 11:14:06;;;;;;;9.25;2.40;;;16.30;99.90;;;;;;5027962;28;20042;-65
2023/05/31 11:17:06;;;;;;;6.78;1.88;;;16.30;99.90;;;;;;5016295;28;20056;-65
2023/05/31 11:19:36;;;;;;;9.85;2.20;;;16.30;99.90;;;;;;5021958;28;20037;-65
2023/05/31 11:22:15;;;;;;;16.25;3.75;;;16.20;99.90;;;;;;5045580;28;20047;-65
2023/05/31 11:24:51;;;;;;;9.43;2.45;;;16.20;99.90;;;;;;5032115;28;20045;-65
2023/05/31 11:27:37;;;;;;;8.43;2.08;;;16.20;99.90;;;;;;5040160;28;20403;-65
2023/05/31 11:30:12;;;;;;;9.88;2.85;;;16.20;99.90;;;;;;5025179;28;20080;-65
2023/05/31 11:32:38;;;;;;;11.77;1.83;;;16.20;99.90;;;;;;5035422;28;20335;-65
2023/05/31 11:35:11;;;;;;;7.82;2.50;;;16.30;99.90;;;;;;5035516;28;20039;-66
2023/05/31 11:37:44;;;;;;;7.63;2.50;;;16.40;99.90;;;;;;5043627;28;20499;-65
2023/05/31 11:40:12;;;;;;;4.95;1.95;;;16.40;99.90;;;;;;5037359;28;20732;-65
2023/05/31 11:42:41;;;;;;;10.87;2.23;;;16.40;99.90;;;;;;5029045;28;20041;-65
2023/05/31 11:45:10;;;;;;;7.85;1.67;;;16.40;99.90;;;;;;5019776;28;20057;-65
2023/05/31 11:47:50;;;;;;;6.15;1.98;;;16.50;99.90;;;;;;5037399;28;20040;-65
2023/05/31 11:50:24;;;;;;;8.60;2.30;;;16.70;99.90;;;;;;5035035;28;20059;-65
2023/05/31 11:52:54;;;;;;;7.43;1.90;;;16.80;99.90;;;;;;5018266;28;20050;-65
2023/05/31 11:55:21;;;;;;;8.18;2.40;;;16.80;99.90;;;;;;5020373;28;20053;-66
2023/05/31 11:57:53;;;;;;;6.68;1.55;;;16.80;99.90;;;;;;5027218;28;20491;-65
2023/05/31 12:00:22;;;;;;;6.35;1.73;;;16.70;99.90;;;;;;5048226;28;20045;-65
2023/05/31 12:02:53;;;;;;;5.47;2.30;;;16.60;99.90;;;;;;5035771;28;20080;-66
2023/05/31 12:05:19;;;;;;;8.95;1.85;;;16.70;99.90;;;;;;5030939;28;20049;-66
2023/05/31 12:07:46;;;;;;;7.97;2.13;;;16.70;99.90;;;;;;5040934;28;20045;-66
2023/05/31 12:10:12;;;;;;;8.25;2.33;;;16.70;99.90;;;;;;5046155;28;20463;-66
2023/05/31 12:12:42;;;;;;;6.18;2.03;;;16.80;99.90;;;;;;5012516;28;20049;-66
2023/05/31 12:15:11;;;;;;;11.88;2.25;;;17.00;99.90;;;;;;5045299;28;20174;-66
2023/05/31 12:17:38;;;;;;;9.13;2.28;;;17.00;99.90;;;;;;5047265;28;20033;-66
2023/05/31 12:20:13;;;;;;;8.07;2.17;;;17.00;99.90;;;;;;5042385;28;20049;-65
2023/05/31 12:22:40;;;;;;;10.13;2.47;;;17.20;99.90;;;;;;5037431;28;20068;-65
2023/05/31 12:25:07;;;;;;;5.32;2.08;;;17.20;99.90;;;;;;5043740;28;20387;-66
2023/05/31 12:27:34;;;;;;;4.85;1.88;;;17.30;99.90;;;;;;5032429;28;20049;-65
2023/05/31 12:30:01;;;;;;;8.68;1.77;;;17.30;97.90;;;;;;5037919;28;20049;-65
2023/05/31 12:32:28;;;;;;;8.95;1.92;;;17.20;98.90;;;;;;5031819;28;20037;-65
2023/05/31 12:35:08;;;;;;;3.85;1.67;;;17.10;94.40;;;;;;5015365;28;20063;-64
2023/05/31 12:37:37;;;;;;;7.28;2.05;;;17.10;98.20;;;;;;5029071;28;20056;-65
2023/05/31 12:40:09;;;;;;;8.80;2.05;;;17.10;99.90;;;;;;5042460;28;20537;-65
2023/05/31 12:42:35;;;;;;;7.10;2.28;;;17.10;99.90;;;;;;5036269;28;20170;-65
2023/05/31 12:45:05;;;;;;;10.73;1.95;;;17.20;99.90;;;;;;5040223;28;20120;-65
2023/05/31 12:47:32;;;;;;;7.43;2.10;;;17.20;99.90;;;;;;5037309;28;20049;-65